Main page
METAR-TAF:

METAR-TAF

Airports :

Almirante Padilla Airport

Riohacha, Colombia

latitude: 11-32N, longitude: 072-56W, elevation: 4 m

Current weather observation

The report was made 8 hours and 17 minutes ago, at 00:00 UTC
Wind 5 kt from the East/Northeast, varying between North and East
Temperature 33°C
Humidity 59%
Pressure 1006 hPa
Visibility 10 km or more
no clouds below 1500 m and no cumulonimbus

METAR: SKRH 180000Z 07005KT 010V100 CAVOK 33/24 Q1006

Time: 03:17 (08:17 UTC)


TAF: missing

Weather observations and forecasts of more than 4000 airports (METAR and TAF reports).

The available stations are represented by yellow and red dots on the map.

Hover mouse over dot to see the name of the station.

Then click to see weather observations and forecasts.

To change the map : click on the green buttons with a black cross to zoom in, on the green button with a dash to zoom out, or on the green arrows for adjacent maps.


METAR-TAF: